Terminal Aerodrome Forecast
Issued by NWS Pocatello, ID

Home | Current Version | Previous Version | Text Only | Print | Product List | Glossary On
Versions: 1 2 3 4 5 6 7 8 9 10 11 12 13 14
572
FTUS45 KPIH 262329
TAFIDA
TAF
KIDA 262329Z 2700/2724 24012KT P6SM FEW040 BKN050
     FM270200 23011KT P6SM -SHRA SCT020 OVC040
     FM270500 19012KT P6SM -SHRA BKN020 OVC040
     FM271200 19008KT P6SM VCSH BKN030 BKN100
     FM272100 24011KT P6SM -SHRA VCTS BKN030CB=

USA.gov is the U.S. government's official web portal to all federal, state and local government web resources and services.